ES-0071 weather

Ronda
Ronda, Andalucía, Spain

Public forecast

Using degrees Celsius for public forecast. Weather courtesy of forecast.io.

METAR (pilot weather report)

Closest report is Málaga Airport, 29.8 nm (55.3 km) E. Retrieved 2018/12/10 13:30 UTC (0 seconds ago):

LEMG 101330Z 13003KT 080V170 9999 FEW010 21/11 Q1026 NOSIG

TAF (pilot weather forecast)

Closest forecast is Málaga Airport, 29.8 nm (55.3 km) E. Retrieved 2018/12/10 12:27 UTC (54 minutes ago):

TAF LEMG 101100Z 1012/1112 12005KT 9999 SCT015 TX19/1013Z TN11/1107Z BECMG 1018/1021 27005KT PROB30 TEMPO 1021/1105 VRB03KT BKN012